Vaduz, Switzerland

4:38 PM CEST on March 30, 2017 (GMT +0200)
Solarisweg | | Change Station

Elev 1502 ft 47.13 °N, 9.52 °E | Updated 33 seconds ago

Clear
Clear
72.7 °F
Feels Like 77 °F
N
4.3
Wind Variable Wind from NNW
Gusts 8.1 mph

Today
High -- | Low -- °F
--% Chance of Precip.
Yesterday
High -- | Low -- °F
Precip. -- in
Pressure 30.24 in
Visibility -9999.0 miles
Clouds
Heat Index 77 °F
Dew Point 46 °F
Humidity 38%
Rainfall 0.00 in
Snow Depth Not available.
7:04 AM 7:48 PM
Waxing Crescent, 9% visible
METAR LSZR 301420Z 28006KT CAVOK 19/07 Q1024 NOSIG RMK L
Pressure 30.24 in
Visibility -9999.0 miles
Clouds
Heat Index 77 °F
Dew Point 46 °F
Humidity 38%
Rainfall 0.00 in
Snow Depth Not available.
7:04 AM 7:48 PM
Waxing Crescent, 9% visible
METAR LSZR 301420Z 28006KT CAVOK 19/07 Q1024 NOSIG RMK L

Get Severe Weather Alerts

Thanks for signing up!

Be on the lookout for a verification email in your inbox.

You'll start receiving the daily forecast at 8 AM.

×

10-Day Weather Forecast

×

Almanac

Astronomy

Mar. 30, 2017 Rise Set
Actual Time
Civil Twilight
Nautical Twilight
Astronomical Twilight
Moon
Length of Visible Light
Length of Day
Tomorrow will be .
, % of the Moon is Illuminated

Today's Extremes

Country Highs Country Lows

Community

WunderPhotos

Upload Photos

1,962,540 photos uploaded!

WunderBlog® & News

Nearby

Air Quality

  Air Quality AQ Index Pollutant
Not available.

Snow Depth

Station Depth Elevation

Earthquake Activity

City Distance Mag. Time & Date
Minimum magnitude displayed is 2.5.

Earthquake Activity

City Distance Mag. Time & Date
Minimum magnitude displayed is 2.5.

Coastal Water Temperatures

Place Temperature

Stations

Nearby Weather Stations

Station Location Temp. Windchill Dew Point Humidity Wind Precip. Elev Updated Type